Time;durP1;ratioP1;P1;durP2;ratioP2;P2;SDS_P1;SDS_P2;PMS_P1;PMS_P2;Temp;Humidity;BMP_temperature;BMP_pressure;BME280_temperature;BME280_humidity;BME280_pressure;Samples;Min_cycle;Max_cycle;Signal;HPM_P1;HPM_P2
2021/03/29 00:01:38;;;;;;;7.07;5.95;;;30.20;92.70;;;;;;5056763;28;20241;-49
2021/03/29 00:04:09;;;;;;;7.38;6.57;;;30.20;92.80;;;;;;5064877;28;20206;-50
2021/03/29 00:06:39;;;;;;;8.88;7.97;;;30.30;92.90;;;;;;5063492;28;20208;-52
2021/03/29 00:09:09;;;;;;;9.13;7.72;;;30.30;93.00;;;;;;5063994;28;20244;-48
2021/03/29 00:11:42;;;;;;;8.57;7.72;;;30.30;93.00;;;;;;5040258;28;20234;-50
2021/03/29 00:14:13;;;;;;;8.30;6.68;;;30.40;93.20;;;;;;5026237;28;20206;-50
2021/03/29 00:16:43;;;;;;;7.55;6.20;;;30.40;93.20;;;;;;5034471;28;20237;-49
2021/03/29 00:19:14;;;;;;;6.43;5.82;;;30.40;93.20;;;;;;5045087;28;20252;-49
2021/03/29 00:21:44;;;;;;;7.05;6.30;;;30.50;93.60;;;;;;4985236;28;20271;-48
2021/03/29 00:24:15;;;;;;;5.95;5.20;;;30.50;93.30;;;;;;4971142;28;20209;-50
2021/03/29 00:26:46;;;;;;;6.68;5.10;;;30.50;93.40;;;;;;4970652;28;20279;-51
2021/03/29 00:29:17;;;;;;;5.50;4.97;;;30.60;93.40;;;;;;4971840;28;20216;-49
2021/03/29 00:31:47;;;;;;;5.75;4.97;;;30.60;93.40;;;;;;4970707;28;20898;-50
2021/03/29 00:34:17;;;;;;;5.63;4.15;;;30.70;93.40;;;;;;4971014;28;20198;-49
2021/03/29 00:36:48;;;;;;;6.05;4.47;;;30.80;93.40;;;;;;4970923;28;20215;-51
2021/03/29 00:39:18;;;;;;;6.13;4.82;;;30.80;93.40;;;;;;4971160;28;20205;-50
2021/03/29 00:41:49;;;;;;;5.45;5.03;;;30.90;93.40;;;;;;4975912;28;20323;-49
2021/03/29 00:44:21;;;;;;;6.28;5.05;;;30.90;93.30;;;;;;5012014;28;20369;-50
2021/03/29 00:46:51;;;;;;;5.93;5.25;;;31.00;93.30;;;;;;5019975;28;20210;-50
2021/03/29 00:49:21;;;;;;;9.13;6.68;;;31.10;93.30;;;;;;5024271;28;20206;-51
2021/03/29 00:51:52;;;;;;;8.73;7.20;;;31.10;93.10;;;;;;5013805;28;20585;-49
2021/03/29 00:54:22;;;;;;;7.63;6.40;;;31.20;92.90;;;;;;5053508;28;20210;-50
2021/03/29 00:56:54;;;;;;;6.85;5.07;;;31.20;92.90;;;;;;5051905;28;20264;-51
2021/03/29 00:59:25;;;;;;;6.40;5.32;;;31.30;92.70;;;;;;5051393;28;20194;-49
2021/03/29 01:01:55;;;;;;;6.00;5.13;;;31.40;92.70;;;;;;5016633;28;20227;-54
2021/03/29 01:04:26;;;;;;;5.85;5.25;;;31.40;92.50;;;;;;5024060;28;20666;-51
2021/03/29 01:06:57;;;;;;;10.35;5.97;;;31.50;92.30;;;;;;5022710;28;20199;-50
2021/03/29 01:09:27;;;;;;;6.50;5.28;;;31.60;92.10;;;;;;5024677;28;20249;-51
2021/03/29 01:11:59;;;;;;;6.57;5.88;;;31.60;91.90;;;;;;4984618;28;20227;-49
2021/03/29 01:14:31;;;;;;;6.88;6.28;;;31.70;91.70;;;;;;4982202;28;21013;-50
2021/03/29 01:17:05;;;;;;;6.63;6.05;;;31.70;91.30;;;;;;4983954;28;20263;-51
2021/03/29 01:19:49;;;;;;;6.70;6.00;;;31.70;90.80;;;;;;4980024;28;20200;-49
2021/03/29 01:22:21;;;;;;;6.88;6.10;;;31.80;90.40;;;;;;4980332;28;20271;-49
2021/03/29 01:24:54;;;;;;;6.90;6.18;;;31.90;90.50;;;;;;4983594;28;20697;-51
2021/03/29 01:27:29;;;;;;;7.00;6.05;;;31.90;90.30;;;;;;5022154;28;20215;-51
2021/03/29 01:29:59;;;;;;;8.27;6.82;;;32.00;90.00;;;;;;5028192;28;20207;-50
2021/03/29 01:32:30;;;;;;;7.10;6.28;;;32.00;89.70;;;;;;5028661;28;20210;-52
2021/03/29 01:35:00;;;;;;;8.18;6.97;;;32.10;89.90;;;;;;5041599;28;20201;-50
2021/03/29 01:37:30;;;;;;;7.32;6.63;;;32.10;88.80;;;;;;5042729;28;20214;-49
2021/03/29 01:40:00;;;;;;;8.10;7.35;;;32.20;88.60;;;;;;5031478;28;20675;-49
2021/03/29 01:42:32;;;;;;;9.32;8.40;;;32.20;88.00;;;;;;5041739;28;20661;-51
2021/03/29 01:45:03;;;;;;;8.02;7.22;;;32.30;87.00;;;;;;5022411;28;20745;-49
2021/03/29 01:47:34;;;;;;;7.70;6.90;;;32.40;87.50;;;;;;5023218;28;20219;-49
2021/03/29 01:50:05;;;;;;;7.18;6.47;;;32.40;87.50;;;;;;5022580;28;20206;-55
2021/03/29 01:52:35;;;;;;;6.68;6.05;;;32.50;87.30;;;;;;5023734;28;20233;-51
2021/03/29 01:55:07;;;;;;;7.28;6.57;;;32.60;87.60;;;;;;5022475;28;20211;-49
2021/03/29 01:57:39;;;;;;;6.85;6.15;;;32.70;87.40;;;;;;5022928;28;20217;-52
2021/03/29 02:00:12;;;;;;;7.43;6.22;;;32.70;87.10;;;;;;5022096;28;20786;-48
2021/03/29 02:02:45;;;;;;;6.85;6.25;;;32.80;86.70;;;;;;5017573;28;20353;-51
2021/03/29 02:05:16;;;;;;;8.68;6.57;;;32.90;86.30;;;;;;5023048;28;20563;-48
2021/03/29 02:07:47;;;;;;;7.07;6.43;;;33.00;86.10;;;;;;5020079;28;20254;-49
2021/03/29 02:10:18;;;;;;;7.22;6.53;;;33.10;86.20;;;;;;5013946;28;20255;-48
2021/03/29 02:12:50;;;;;;;7.78;7.07;;;33.20;85.50;;;;;;4964173;28;20216;-47
2021/03/29 02:15:24;;;;;;;7.50;6.80;;;33.20;84.70;;;;;;4953128;28;20802;-49
2021/03/29 02:17:55;;;;;;;7.53;6.60;;;33.30;84.40;;;;;;4964536;28;20205;-47
2021/03/29 02:20:27;;;;;;;7.20;6.50;;;33.40;84.00;;;;;;4963771;28;20209;-47
2021/03/29 02:22:58;;;;;;;7.80;6.68;;;33.40;83.50;;;;;;4949516;28;20555;-48
2021/03/29 02:25:29;;;;;;;7.55;6.85;;;33.50;83.50;;;;;;4949117;28;20206;-48
2021/03/29 02:28:01;;;;;;;7.40;6.72;;;33.60;83.40;;;;;;4962280;28;20763;-48
2021/03/29 02:30:35;;;;;;;8.98;7.28;;;33.70;83.00;;;;;;4957430;28;20316;-47
2021/03/29 02:33:07;;;;;;;7.97;7.18;;;33.70;82.50;;;;;;4952271;28;20580;-48
2021/03/29 02:35:37;;;;;;;7.60;6.97;;;33.80;82.60;;;;;;4953907;28;20206;-49
2021/03/29 02:38:12;;;;;;;8.18;7.45;;;33.90;82.00;;;;;;4958714;28;20208;-48
2021/03/29 02:40:42;;;;;;;8.30;7.50;;;33.90;80.20;;;;;;4977487;28;20228;-47
2021/03/29 02:43:14;;;;;;;10.07;9.07;;;34.00;80.60;;;;;;5020351;28;20256;-47
2021/03/29 02:45:48;;;;;;;7.70;7.07;;;34.10;78.00;;;;;;5012444;28;20210;-47
2021/03/29 02:48:19;;;;;;;9.82;8.85;;;34.10;78.40;;;;;;5023095;28;20648;-47
2021/03/29 02:50:50;;;;;;;10.18;8.95;;;34.20;75.30;;;;;;5042701;28;20280;-51
2021/03/29 02:53:23;;;;;;;9.80;8.75;;;34.20;74.60;;;;;;5049936;28;20213;-50
2021/03/29 02:55:54;;;;;;;9.68;8.77;;;34.20;73.90;;;;;;5050078;28;20225;-49
2021/03/29 02:58:30;;;;;;;9.52;8.63;;;34.30;73.80;;;;;;5062690;28;20201;-47
2021/03/29 03:01:04;;;;;;;10.57;9.63;;;34.30;73.30;;;;;;5049565;28;20295;-47
2021/03/29 03:03:34;;;;;;;10.48;9.30;;;34.30;72.40;;;;;;5063522;28;20696;-51
2021/03/29 03:06:06;;;;;;;9.77;8.73;;;34.40;72.80;;;;;;5057673;28;20208;-47
2021/03/29 03:08:37;;;;;;;9.68;8.68;;;34.40;72.70;;;;;;5007307;28;20216;-49
2021/03/29 03:11:10;;;;;;;10.10;9.18;;;34.60;72.90;;;;;;5015623;28;20261;-47
2021/03/29 03:13:44;;;;;;;9.52;8.75;;;34.60;70.90;;;;;;5009633;28;20206;-48
2021/03/29 03:16:14;;;;;;;9.15;8.18;;;34.60;70.80;;;;;;5006813;28;20215;-49
2021/03/29 03:18:46;;;;;;;8.55;7.85;;;34.70;71.50;;;;;;5015650;28;20646;-47
2021/03/29 03:21:17;;;;;;;8.27;7.57;;;34.80;72.30;;;;;;4982181;28;20211;-47
2021/03/29 03:23:55;;;;;;;9.60;8.60;;;34.90;72.30;;;;;;4982601;28;20258;-50
2021/03/29 03:26:25;;;;;;;10.52;9.52;;;34.90;70.60;;;;;;4971742;28;20208;-47
2021/03/29 03:28:57;;;;;;;10.38;8.52;;;35.00;69.30;;;;;;4976591;28;20216;-46
2021/03/29 03:31:27;;;;;;;10.77;8.68;;;35.00;69.10;;;;;;4978917;28;20232;-52
2021/03/29 03:33:58;;;;;;;8.93;8.07;;;35.10;67.80;;;;;;4980446;28;20223;-51
2021/03/29 03:36:29;;;;;;;9.18;8.38;;;35.20;68.50;;;;;;4982404;28;20299;-50
2021/03/29 03:39:00;;;;;;;8.80;8.00;;;35.20;66.60;;;;;;4987883;28;20205;-48
2021/03/29 03:41:31;;;;;;;8.10;7.30;;;35.30;67.60;;;;;;5042797;28;20212;-47
2021/03/29 03:44:07;;;;;;;9.70;8.80;;;35.40;68.40;;;;;;5039547;28;20194;-47
2021/03/29 03:46:38;;;;;;;8.50;7.75;;;35.40;68.30;;;;;;5040912;28;20209;-47
2021/03/29 03:49:10;;;;;;;8.95;8.15;;;35.40;68.40;;;;;;5039404;28;20849;-50
2021/03/29 03:51:40;;;;;;;8.75;7.85;;;35.50;68.60;;;;;;5042096;28;20229;-49
2021/03/29 03:54:11;;;;;;;10.27;8.93;;;35.60;68.70;;;;;;5068181;28;20221;-48
2021/03/29 03:56:43;;;;;;;9.70;8.57;;;35.50;66.20;;;;;;5054453;28;20252;-49
2021/03/29 03:59:15;;;;;;;8.27;7.47;;;35.60;66.30;;;;;;5068417;28;20197;-47
2021/03/29 04:01:51;;;;;;;9.30;8.35;;;35.60;67.10;;;;;;5068301;28;20233;-47
2021/03/29 04:04:21;;;;;;;10.15;8.27;;;35.60;66.10;;;;;;5025189;28;20305;-47
2021/03/29 04:06:52;;;;;;;10.43;9.40;;;35.70;66.50;;;;;;5024566;28;20212;-48
2021/03/29 04:09:30;;;;;;;10.77;9.25;;;35.70;65.40;;;;;;5019724;28;20338;-51
2021/03/29 04:12:08;;;;;;;10.05;8.75;;;35.70;65.70;;;;;;5010436;28;20219;-48
2021/03/29 04:14:40;;;;;;;9.85;8.85;;;35.80;64.90;;;;;;5023909;28;20223;-48
2021/03/29 04:17:10;;;;;;;10.32;8.93;;;35.70;64.70;;;;;;5023956;28;20202;-48
2021/03/29 04:19:41;;;;;;;8.48;7.78;;;35.80;64.30;;;;;;5023815;28;20211;-46
2021/03/29 04:22:11;;;;;;;10.45;8.45;;;35.80;65.40;;;;;;5010458;28;20200;-46
2021/03/29 04:24:42;;;;;;;9.63;8.63;;;35.80;64.30;;;;;;5009516;28;20679;-47
2021/03/29 04:27:12;;;;;;;8.63;7.82;;;35.90;64.30;;;;;;5024460;28;20220;-46
2021/03/29 04:29:44;;;;;;;10.32;8.80;;;36.00;64.90;;;;;;5024470;28;20218;-47
2021/03/29 04:32:14;;;;;;;9.05;8.25;;;36.00;63.60;;;;;;5017314;28;20215;-47
2021/03/29 04:34:45;;;;;;;8.05;7.35;;;36.10;64.80;;;;;;5035171;28;20205;-47
2021/03/29 04:37:16;;;;;;;8.50;7.60;;;36.10;65.60;;;;;;5052840;28;20643;-46
2021/03/29 04:39:46;;;;;;;9.25;8.45;;;36.20;66.20;;;;;;5052015;28;20645;-46
2021/03/29 04:42:17;;;;;;;9.65;8.75;;;36.30;64.70;;;;;;5052275;28;20728;-46
2021/03/29 04:44:49;;;;;;;8.70;7.90;;;36.40;62.80;;;;;;5057167;28;20259;-47
2021/03/29 04:47:19;;;;;;;9.77;8.77;;;36.50;62.30;;;;;;5052669;28;20213;-46
2021/03/29 04:49:50;;;;;;;13.52;9.82;;;36.50;62.30;;;;;;5064570;28;20288;-48
2021/03/29 04:52:20;;;;;;;11.05;10.05;;;36.60;61.70;;;;;;5067144;28;20234;-47
2021/03/29 04:54:51;;;;;;;9.43;8.63;;;36.60;61.40;;;;;;5059701;28;20244;-48
2021/03/29 04:57:21;;;;;;;9.38;8.57;;;36.60;61.70;;;;;;5065943;28;20266;-50
2021/03/29 04:59:53;;;;;;;9.88;8.93;;;36.60;62.50;;;;;;5065914;28;20235;-50
2021/03/29 05:02:24;;;;;;;12.02;8.80;;;36.70;62.00;;;;;;5065326;28;20196;-50
2021/03/29 05:04:54;;;;;;;9.68;8.88;;;36.70;62.10;;;;;;5066493;28;20282;-48
2021/03/29 05:07:24;;;;;;;9.98;8.98;;;36.70;61.70;;;;;;5052418;28;20593;-49
2021/03/29 05:09:55;;;;;;;9.50;8.70;;;36.80;61.30;;;;;;5052098;28;20654;-48
2021/03/29 05:12:26;;;;;;;9.85;9.05;;;36.80;61.00;;;;;;5052831;28;21631;-47
2021/03/29 05:14:57;;;;;;;8.73;7.93;;;36.80;60.90;;;;;;5054182;28;20225;-49
2021/03/29 05:17:28;;;;;;;10.90;9.77;;;36.90;61.00;;;;;;5053009;28;20611;-47
2021/03/29 05:19:58;;;;;;;11.15;10.23;;;36.90;60.70;;;;;;5052735;28;20194;-49
2021/03/29 05:22:29;;;;;;;10.50;9.48;;;37.00;59.90;;;;;;5066830;28;20724;-47
2021/03/29 05:24:59;;;;;;;14.40;9.82;;;37.00;60.10;;;;;;5066017;28;20197;-47
2021/03/29 05:27:30;;;;;;;9.48;8.60;;;37.00;60.20;;;;;;5054058;28;20190;-47
2021/03/29 05:30:01;;;;;;;10.88;9.80;;;37.10;60.60;;;;;;5062163;28;20208;-47
2021/03/29 05:32:32;;;;;;;10.38;9.35;;;37.10;59.80;;;;;;5061867;28;20552;-47
2021/03/29 05:35:03;;;;;;;9.93;9.02;;;37.10;59.90;;;;;;5063322;28;20209;-48
2021/03/29 05:37:33;;;;;;;10.27;9.27;;;37.20;60.50;;;;;;5065444;28;20198;-48
2021/03/29 05:40:04;;;;;;;9.27;8.13;;;37.20;60.20;;;;;;5052522;28;20202;-50
2021/03/29 05:42:35;;;;;;;9.30;7.90;;;37.20;61.10;;;;;;5052578;28;20217;-49
2021/03/29 05:45:09;;;;;;;9.85;8.95;;;37.20;60.50;;;;;;5057778;28;20606;-48
2021/03/29 05:47:40;;;;;;;9.35;8.32;;;37.20;60.40;;;;;;5056284;28;20210;-47
2021/03/29 05:50:13;;;;;;;10.70;9.65;;;37.20;60.90;;;;;;5052865;28;20315;-47
2021/03/29 05:52:43;;;;;;;9.90;9.00;;;37.20;60.40;;;;;;5061538;28;20217;-48
2021/03/29 05:55:17;;;;;;;10.90;9.90;;;37.20;60.70;;;;;;5064780;28;20217;-48
2021/03/29 05:58:07;;;;;;;10.35;9.45;;;37.10;60.10;;;;;;5061249;28;20193;-50
2021/03/29 06:00:40;;;;;;;8.98;8.07;;;37.20;60.20;;;;;;5063881;28;20233;-48
2021/03/29 06:03:25;;;;;;;9.73;8.82;;;37.10;60.60;;;;;;5068134;28;20221;-49
2021/03/29 06:05:57;;;;;;;9.18;8.38;;;37.20;60.90;;;;;;5053210;28;20194;-47
2021/03/29 06:08:28;;;;;;;10.73;9.75;;;37.10;60.10;;;;;;5057758;28;20217;-48
2021/03/29 06:10:59;;;;;;;10.25;9.35;;;37.20;59.70;;;;;;5062027;28;20331;-47
2021/03/29 06:13:31;;;;;;;9.75;8.75;;;37.20;59.50;;;;;;5064000;28;20210;-46
2021/03/29 06:16:07;;;;;;;12.00;10.02;;;37.10;59.40;;;;;;5062813;28;20213;-47
2021/03/29 06:18:38;;;;;;;10.32;9.27;;;37.10;59.20;;;;;;5059264;28;20197;-47
2021/03/29 06:21:10;;;;;;;10.07;8.57;;;37.10;59.60;;;;;;5056334;28;20651;-48
2021/03/29 06:23:43;;;;;;;10.15;8.73;;;37.10;59.60;;;;;;5050743;28;20194;-47
2021/03/29 06:26:20;;;;;;;9.48;8.57;;;37.10;59.90;;;;;;5063581;28;20208;-47
2021/03/29 06:28:50;;;;;;;9.32;8.23;;;37.10;60.10;;;;;;5065621;28;20615;-49
2021/03/29 06:31:24;;;;;;;9.52;8.63;;;37.00;60.50;;;;;;5055632;28;20914;-47
2021/03/29 06:33:55;;;;;;;11.05;8.85;;;37.10;60.70;;;;;;5050584;28;20598;-48
2021/03/29 06:36:35;;;;;;;9.85;8.85;;;37.00;60.30;;;;;;5063680;28;20224;-47
2021/03/29 06:39:17;;;;;;;9.65;8.65;;;37.00;60.30;;;;;;5062146;28;20356;-46
2021/03/29 06:41:54;;;;;;;9.80;7.97;;;37.00;61.30;;;;;;5065138;28;20197;-48
2021/03/29 06:44:27;;;;;;;9.40;8.43;;;37.00;61.90;;;;;;5063972;28;20214;-48
2021/03/29 06:47:12;;;;;;;9.00;8.10;;;37.00;61.80;;;;;;5064012;28;20193;-56
2021/03/29 06:49:46;;;;;;;9.52;8.45;;;36.90;61.90;;;;;;5065126;28;20202;-48
2021/03/29 06:52:27;;;;;;;8.65;7.85;;;36.90;62.00;;;;;;5064466;28;20217;-47
2021/03/29 06:55:16;;;;;;;10.23;8.85;;;36.90;62.00;;;;;;5064466;28;20205;-46
2021/03/29 06:57:47;;;;;;;9.00;8.10;;;36.80;62.10;;;;;;5064982;28;20189;-46
2021/03/29 07:00:22;;;;;;;7.95;7.15;;;36.70;62.40;;;;;;5065091;28;20247;-48
2021/03/29 07:02:54;;;;;;;8.15;7.40;;;36.80;62.40;;;;;;5008831;28;20225;-48
2021/03/29 07:05:25;;;;;;;8.15;7.43;;;36.80;62.50;;;;;;5018340;28;20211;-47
2021/03/29 07:07:55;;;;;;;7.45;6.75;;;36.80;62.30;;;;;;5019353;28;20213;-49
2021/03/29 07:10:26;;;;;;;9.32;8.25;;;36.90;62.50;;;;;;5020986;28;20191;-47
2021/03/29 07:12:57;;;;;;;8.23;7.03;;;37.00;62.10;;;;;;5016731;28;20209;-49
2021/03/29 07:15:28;;;;;;;8.38;7.65;;;37.00;62.20;;;;;;5019562;28;20652;-49
2021/03/29 07:17:59;;;;;;;11.63;9.15;;;37.10;61.90;;;;;;5018046;28;20195;-50
2021/03/29 07:20:32;;;;;;;7.93;7.18;;;37.10;61.00;;;;;;5021462;28;20237;-47
2021/03/29 07:23:02;;;;;;;9.98;7.85;;;37.10;61.70;;;;;;5020662;28;20195;-49
2021/03/29 07:25:32;;;;;;;8.13;7.43;;;37.20;60.80;;;;;;5019745;28;20621;-51
2021/03/29 07:28:03;;;;;;;7.90;7.20;;;37.20;60.10;;;;;;4981705;28;20208;-49
2021/03/29 07:30:46;;;;;;;7.80;7.10;;;37.20;60.50;;;;;;4978731;28;20199;-54
2021/03/29 07:33:18;;;;;;;7.35;6.65;;;37.30;61.40;;;;;;4979042;28;20271;-50
2021/03/29 07:35:50;;;;;;;8.10;7.30;;;37.30;61.00;;;;;;4980721;28;20283;-49
2021/03/29 07:38:20;;;;;;;7.20;6.53;;;37.40;60.50;;;;;;4980287;28;20219;-50
2021/03/29 07:40:52;;;;;;;9.88;8.13;;;37.50;60.60;;;;;;5024373;28;20291;-52
2021/03/29 07:43:23;;;;;;;8.00;7.20;;;37.50;59.80;;;;;;5041992;28;20309;-49
2021/03/29 07:45:54;;;;;;;7.57;6.88;;;37.60;60.20;;;;;;5041058;28;20883;-51
2021/03/29 07:48:36;;;;;;;7.43;6.57;;;37.60;59.90;;;;;;5038281;28;20217;-52
2021/03/29 07:51:08;;;;;;;9.10;7.65;;;37.70;59.80;;;;;;5039465;28;20295;-49
2021/03/29 07:53:45;;;;;;;8.05;7.35;;;37.70;59.20;;;;;;4982112;28;20212;-50
2021/03/29 07:56:41;;;;;;;7.45;6.85;;;37.70;59.20;;;;;;4980773;28;20259;-52
2021/03/29 07:59:12;;;;;;;7.35;6.65;;;37.70;58.50;;;;;;5000207;28;20230;-49
2021/03/29 08:02:01;;;;;;;6.88;6.28;;;37.70;59.50;;;;;;5021805;28;20856;-51
2021/03/29 08:05:03;;;;;;;7.03;6.32;;;37.80;59.90;;;;;;5021464;28;20199;-49
2021/03/29 08:07:40;;;;;;;6.32;5.60;;;37.90;60.00;;;;;;5007369;28;20218;-49
2021/03/29 08:10:10;;;;;;;6.63;5.43;;;38.00;59.70;;;;;;5006771;28;20358;-49
2021/03/29 08:12:59;;;;;;;6.60;5.15;;;38.10;60.00;;;;;;5008351;28;20224;-49
2021/03/29 08:16:08;;;;;;;5.78;5.28;;;38.20;60.00;;;;;;5021259;28;20222;-50
2021/03/29 08:19:09;;;;;;;5.93;5.20;;;38.30;60.10;;;;;;5002793;28;20206;-51
2021/03/29 08:21:49;;;;;;;6.03;5.03;;;38.50;60.20;;;;;;5021627;28;20187;-51
2021/03/29 08:24:21;;;;;;;5.50;5.03;;;38.60;59.80;;;;;;5035453;28;20201;-50
2021/03/29 08:26:51;;;;;;;5.75;5.28;;;38.70;59.50;;;;;;5060773;28;20190;-51
2021/03/29 08:29:30;;;;;;;5.80;5.20;;;38.80;59.00;;;;;;5063744;28;20470;-53
2021/03/29 08:32:16;;;;;;;6.25;5.60;;;38.80;58.70;;;;;;5063867;28;20210;-49
2021/03/29 08:34:56;;;;;;;4.85;4.45;;;38.90;58.40;;;;;;5061598;28;20234;-50
2021/03/29 08:37:38;;;;;;;5.35;4.85;;;38.90;58.10;;;;;;5064991;28;20200;-49
2021/03/29 08:40:11;;;;;;;7.03;5.38;;;39.00;57.90;;;;;;5065216;28;20197;-51
2021/03/29 08:42:42;;;;;;;5.68;4.90;;;39.00;57.50;;;;;;5066911;28;20188;-50
2021/03/29 08:45:14;;;;;;;5.20;4.53;;;39.00;57.50;;;;;;5066683;28;20210;-49
2021/03/29 08:47:45;;;;;;;5.10;4.60;;;39.00;57.50;;;;;;5066459;28;20194;-50
2021/03/29 08:50:16;;;;;;;6.03;4.80;;;39.00;57.60;;;;;;5065928;28;20794;-53
2021/03/29 08:52:48;;;;;;;5.93;5.30;;;38.90;57.30;;;;;;5065661;28;20715;-49
2021/03/29 08:55:19;;;;;;;6.05;4.70;;;39.00;57.40;;;;;;5064382;28;20277;-49
2021/03/29 08:57:49;;;;;;;5.60;5.00;;;39.00;57.50;;;;;;5065452;28;20292;-52
2021/03/29 09:00:21;;;;;;;4.68;4.28;;;39.00;57.30;;;;;;5067061;28;20848;-50
2021/03/29 09:02:51;;;;;;;6.28;4.75;;;39.10;57.50;;;;;;5067359;28;20185;-52
2021/03/29 09:05:22;;;;;;;5.82;4.65;;;39.10;57.00;;;;;;5066091;28;20190;-52
2021/03/29 09:07:56;;;;;;;4.78;4.38;;;39.10;56.70;;;;;;5065062;28;20580;-52
2021/03/29 09:10:27;;;;;;;5.30;4.63;;;39.20;56.70;;;;;;5066000;28;20557;-51
2021/03/29 09:12:57;;;;;;;4.30;3.97;;;39.20;56.20;;;;;;5065392;28;20201;-49
2021/03/29 09:15:29;;;;;;;5.47;4.60;;;39.30;56.30;;;;;;5064161;28;20653;-53
2021/03/29 09:18:01;;;;;;;4.97;4.57;;;39.30;56.00;;;;;;5066097;28;20873;-49
2021/03/29 09:20:33;;;;;;;5.20;4.80;;;39.30;55.60;;;;;;5065586;28;20229;-52
2021/03/29 09:23:04;;;;;;;5.22;4.60;;;39.40;55.20;;;;;;5064854;28;20201;-52
2021/03/29 09:25:37;;;;;;;5.03;4.63;;;39.40;55.20;;;;;;5054591;28;20198;-50
2021/03/29 09:28:18;;;;;;;4.70;4.30;;;39.50;55.30;;;;;;5052236;28;20206;-51
2021/03/29 09:30:50;;;;;;;8.35;5.05;;;39.50;54.90;;;;;;5066153;28;20754;-51
2021/03/29 09:33:21;;;;;;;4.38;3.97;;;39.50;54.70;;;;;;5066288;28;20304;-49
2021/03/29 09:35:52;;;;;;;5.35;4.45;;;39.60;54.30;;;;;;5054895;28;20248;-50
2021/03/29 09:38:34;;;;;;;5.50;5.00;;;39.60;54.20;;;;;;5065481;28;20197;-50
2021/03/29 09:41:14;;;;;;;5.13;4.63;;;39.60;54.10;;;;;;5065278;28;20209;-49
2021/03/29 09:43:45;;;;;;;5.15;4.68;;;39.60;53.80;;;;;;5065280;28;20228;-50
2021/03/29 09:46:15;;;;;;;5.70;5.00;;;39.60;53.80;;;;;;5056337;28;20213;-50
2021/03/29 09:48:46;;;;;;;4.70;4.25;;;39.70;53.60;;;;;;5065028;28;20293;-54
2021/03/29 09:51:19;;;;;;;5.40;4.60;;;39.70;53.80;;;;;;5065631;28;20233;-50
2021/03/29 09:53:51;;;;;;;5.18;4.68;;;39.70;53.50;;;;;;5064170;28;20229;-49
2021/03/29 09:56:28;;;;;;;6.32;4.70;;;39.60;53.50;;;;;;5063564;28;20650;-49
2021/03/29 09:58:59;;;;;;;5.07;4.63;;;39.60;53.60;;;;;;5057459;28;20208;-48
2021/03/29 10:01:29;;;;;;;4.75;3.97;;;39.60;53.70;;;;;;5064310;28;20725;-51
2021/03/29 10:04:00;;;;;;;6.65;3.80;;;39.60;53.70;;;;;;5063349;28;20197;-48
2021/03/29 10:06:31;;;;;;;4.20;3.80;;;39.60;53.70;;;;;;5065571;28;20202;-48
2021/03/29 10:09:04;;;;;;;4.05;3.40;;;39.60;53.70;;;;;;5065641;28;20282;-51
2021/03/29 10:11:44;;;;;;;3.60;3.25;;;39.50;53.60;;;;;;5065717;28;20262;-50
2021/03/29 10:14:16;;;;;;;3.35;3.00;;;39.50;53.80;;;;;;5063293;28;20203;-51
2021/03/29 10:16:47;;;;;;;4.85;3.60;;;39.50;54.20;;;;;;5057525;28;20913;-49
2021/03/29 10:19:19;;;;;;;3.97;3.63;;;39.50;54.10;;;;;;5050944;28;20662;-53
2021/03/29 10:22:11;;;;;;;4.20;3.60;;;39.50;54.00;;;;;;5051237;28;20197;-52
2021/03/29 10:25:00;;;;;;;4.05;3.42;;;39.50;54.40;;;;;;5059681;28;20210;-50
2021/03/29 10:27:47;;;;;;;3.35;2.92;;;39.50;54.90;;;;;;5052115;28;20201;-52
2021/03/29 10:30:25;;;;;;;5.95;3.08;;;39.70;55.10;;;;;;5055573;28;20570;-50
2021/03/29 10:32:56;;;;;;;3.58;2.80;;;40.00;55.20;;;;;;5050930;28;20224;-49
2021/03/29 10:35:28;;;;;;;3.70;2.63;;;40.30;55.10;;;;;;5054531;28;20248;-49
2021/03/29 10:38:00;;;;;;;4.10;2.90;;;40.60;54.60;;;;;;5059579;28;20852;-51
2021/03/29 10:40:31;;;;;;;3.95;2.50;;;40.90;54.40;;;;;;5064255;28;20812;-51
2021/03/29 10:43:01;;;;;;;5.55;2.50;;;41.30;53.90;;;;;;5065123;28;20193;-50
2021/03/29 10:45:32;;;;;;;2.63;2.10;;;41.60;53.70;;;;;;5063320;28;20280;-48
2021/03/29 10:48:02;;;;;;;2.80;2.30;;;41.80;53.40;;;;;;5065136;28;20208;-49
2021/03/29 10:50:32;;;;;;;3.70;2.35;;;42.10;52.60;;;;;;5064377;28;20614;-51
2021/03/29 10:53:03;;;;;;;2.70;2.22;;;42.30;52.10;;;;;;5064964;28;20232;-53
2021/03/29 10:55:35;;;;;;;4.15;2.80;;;42.50;51.50;;;;;;5056699;28;20259;-51
2021/03/29 10:58:05;;;;;;;2.90;2.40;;;42.60;51.10;;;;;;5058659;28;20340;-48
2021/03/29 11:00:36;;;;;;;3.47;2.83;;;42.70;50.80;;;;;;5049035;28;20240;-49
2021/03/29 11:03:08;;;;;;;4.03;2.88;;;42.70;50.50;;;;;;5063696;28;20221;-52
2021/03/29 11:05:38;;;;;;;4.07;2.45;;;42.60;50.10;;;;;;5064626;28;20201;-51
2021/03/29 11:08:08;;;;;;;4.15;2.55;;;42.50;50.20;;;;;;5064478;28;20213;-49
2021/03/29 11:10:40;;;;;;;3.85;2.75;;;42.20;50.30;;;;;;5064687;28;20954;-52
2021/03/29 11:13:25;;;;;;;3.28;2.63;;;42.00;50.30;;;;;;5059468;28;20356;-51
2021/03/29 11:15:56;;;;;;;5.55;2.70;;;41.70;50.60;;;;;;5052459;28;20762;-50
2021/03/29 11:18:27;;;;;;;4.60;3.08;;;41.30;51.00;;;;;;5062154;28;20205;-49
2021/03/29 11:20:58;;;;;;;3.47;2.50;;;40.90;51.50;;;;;;5052187;28;20214;-50
2021/03/29 11:23:29;;;;;;;2.97;2.65;;;40.50;52.10;;;;;;5060662;28;20197;-50
2021/03/29 11:26:00;;;;;;;2.88;2.45;;;40.10;52.70;;;;;;5062725;28;20194;-50
2021/03/29 11:28:31;;;;;;;4.25;2.75;;;39.70;53.40;;;;;;5064289;28;20197;-50
2021/03/29 11:31:01;;;;;;;3.88;2.83;;;39.30;54.20;;;;;;5064761;28;20252;-49
2021/03/29 11:33:31;;;;;;;2.60;2.30;;;39.00;54.80;;;;;;5063895;28;20221;-49
2021/03/29 11:36:01;;;;;;;2.95;2.40;;;38.60;55.50;;;;;;5064361;28;20208;-49
2021/03/29 11:38:32;;;;;;;3.75;2.78;;;38.30;56.30;;;;;;5055557;28;20206;-50
2021/03/29 11:41:03;;;;;;;3.80;2.78;;;38.00;56.90;;;;;;5062083;28;20246;-49
2021/03/29 11:43:34;;;;;;;2.83;2.45;;;37.70;57.50;;;;;;5054846;28;20195;-49
2021/03/29 11:46:04;;;;;;;2.60;2.20;;;37.50;58.10;;;;;;5056148;28;20238;-50
2021/03/29 11:48:37;;;;;;;3.55;2.40;;;37.30;58.80;;;;;;5059053;28;20198;-53
2021/03/29 11:51:08;;;;;;;3.08;2.20;;;37.10;59.30;;;;;;5064032;28;20241;-52
2021/03/29 11:53:39;;;;;;;4.50;2.53;;;36.90;59.70;;;;;;5064143;28;20265;-50
2021/03/29 11:56:10;;;;;;;3.35;2.20;;;36.70;60.20;;;;;;5062834;28;20276;-49
2021/03/29 11:58:41;;;;;;;5.13;2.30;;;36.50;61.90;;;;;;5061229;28;20217;-51
2021/03/29 12:01:19;;;;;;;3.70;2.42;;;36.30;61.50;;;;;;5061726;28;20252;-49
2021/03/29 12:03:53;;;;;;;2.80;2.20;;;36.20;62.10;;;;;;5063080;28;20186;-50
2021/03/29 12:06:28;;;;;;;3.10;2.55;;;36.00;62.50;;;;;;5061884;28;20266;-49
2021/03/29 12:09:04;;;;;;;3.08;2.30;;;35.90;63.20;;;;;;5020242;28;20191;-52
2021/03/29 12:14:30;;;;;;;2.80;2.42;;;35.60;64.20;;;;;;5010821;28;20211;-51
2021/03/29 12:17:01;;;;;;;3.03;2.45;;;35.50;64.40;;;;;;5014281;28;20210;-49
2021/03/29 12:19:32;;;;;;;4.38;2.40;;;35.40;65.00;;;;;;5012055;28;21015;-50
2021/03/29 12:22:07;;;;;;;4.15;2.75;;;35.30;65.20;;;;;;5012458;28;20238;-50
2021/03/29 12:24:38;;;;;;;3.33;2.22;;;35.20;65.70;;;;;;5024723;28;20206;-51
2021/03/29 12:27:10;;;;;;;2.78;2.08;;;35.20;66.30;;;;;;4985879;28;20235;-49
2021/03/29 12:29:41;;;;;;;2.72;2.30;;;35.10;66.70;;;;;;4977303;28;20292;-50
2021/03/29 12:32:14;;;;;;;3.00;2.00;;;35.00;66.90;;;;;;4982635;28;20298;-52
2021/03/29 12:34:45;;;;;;;2.95;2.08;;;34.90;67.30;;;;;;5042292;28;20781;-50
2021/03/29 12:37:16;;;;;;;2.25;1.90;;;34.90;67.40;;;;;;5044336;28;20210;-52
2021/03/29 12:39:49;;;;;;;4.75;2.25;;;34.80;67.70;;;;;;5031014;28;20194;-53
2021/03/29 12:42:24;;;;;;;2.35;2.15;;;34.80;68.00;;;;;;5044203;28;20206;-51
2021/03/29 12:44:56;;;;;;;3.05;2.13;;;34.80;68.80;;;;;;5039542;28;20210;-50
2021/03/29 12:47:27;;;;;;;2.78;2.40;;;34.70;68.70;;;;;;5040652;28;20202;-51
2021/03/29 12:50:07;;;;;;;2.97;2.60;;;34.60;69.00;;;;;;5043040;28;20197;-53
2021/03/29 12:52:38;;;;;;;3.28;2.58;;;34.60;69.20;;;;;;5042542;28;20653;-52
2021/03/29 12:55:09;;;;;;;3.05;2.53;;;34.50;69.40;;;;;;5044739;28;20745;-53
2021/03/29 12:57:41;;;;;;;3.55;2.55;;;34.50;69.60;;;;;;5050550;28;20208;-50
2021/03/29 13:00:12;;;;;;;3.33;2.30;;;34.40;70.00;;;;;;5063741;28;20241;-51
2021/03/29 13:02:44;;;;;;;3.10;2.70;;;34.30;70.10;;;;;;5066653;28;21154;-50
2021/03/29 13:05:19;;;;;;;3.53;2.65;;;34.30;70.50;;;;;;5067189;28;20200;-50
2021/03/29 13:07:53;;;;;;;4.15;3.58;;;34.20;70.70;;;;;;5065838;28;20206;-51
2021/03/29 13:13:20;;;;;;;5.43;4.43;;;34.10;71.00;;;;;;5033678;28;20226;-53
2021/03/29 13:15:51;;;;;;;5.47;3.70;;;34.10;71.40;;;;;;5065227;28;20194;-50
2021/03/29 13:18:21;;;;;;;5.10;3.80;;;34.00;71.50;;;;;;5066678;28;20202;-50
2021/03/29 13:20:52;;;;;;;5.20;3.55;;;34.00;71.80;;;;;;5066068;28;20189;-50